Time;durP1;ratioP1;P1;durP2;ratioP2;P2;SDS_P1;SDS_P2;PMS_P1;PMS_P2;Temp;Humidity;BMP_temperature;BMP_pressure;BME280_temperature;BME280_humidity;BME280_pressure;Samples;Min_cycle;Max_cycle;Signal;HPM_P1;HPM_P2
2023/01/29 00:00:40;;;;;;;18.00;7.60;;;;;;;-0.79;72.42;101457.30;130084;1260;115123;-69
2023/01/29 00:04:03;;;;;;;16.30;8.90;;;;;;;-0.82;72.58;101463.20;129831;1260;114723;-70
2023/01/29 00:07:05;;;;;;;19.40;9.80;;;;;;;-0.84;72.63;101457.92;129807;1260;115385;-70
2023/01/29 00:10:08;;;;;;;15.90;9.00;;;;;;;-0.86;72.81;101457.36;129687;1280;114856;-67
2023/01/29 00:13:10;;;;;;;14.90;8.90;;;;;;;-0.87;72.72;101458.91;129674;1273;114769;-68
2023/01/29 00:16:13;;;;;;;13.30;8.00;;;;;;;-0.89;72.86;101452.40;129706;1280;114712;-65
2023/01/29 00:19:16;;;;;;;17.20;8.50;;;;;;;-0.91;72.63;101453.42;129773;1257;114702;-72
2023/01/29 00:22:18;;;;;;;11.40;7.60;;;;;;;-0.95;72.85;101451.95;129761;1258;114731;-68
2023/01/29 00:25:21;;;;;;;13.30;8.70;;;;;;;-0.99;72.98;101449.79;129692;1262;116299;-66
2023/01/29 00:28:23;;;;;;;17.40;8.80;;;;;;;-1.06;73.06;101441.09;129943;1280;114719;-69
2023/01/29 00:31:25;;;;;;;13.60;7.90;;;;;;;-1.13;72.88;101434.30;129810;1280;115163;-69
2023/01/29 00:34:27;;;;;;;15.40;8.70;;;;;;;-1.21;73.17;101434.34;129451;1257;128363;-70
2023/01/29 00:37:30;;;;;;;16.40;8.90;;;;;;;-1.29;72.96;101430.88;129673;1263;114842;-70
2023/01/29 00:44:56;;;;;;;18.90;10.10;;;;;;;-1.38;72.80;101421.09;129678;1280;115150;-71
2023/01/29 00:47:32;;;;;;;19.30;10.10;;;;;;;-1.56;72.76;101420.23;129733;1271;114811;-66
2023/01/29 00:50:36;;;;;;;23.70;11.50;;;;;;;-1.62;72.69;101409.77;129678;1270;114791;-71
2023/01/29 00:53:39;;;;;;;27.10;13.20;;;;;;;-1.68;73.10;101401.96;129880;1280;114812;-64
2023/01/29 00:56:41;;;;;;;25.60;12.00;;;;;;;-1.72;73.44;101402.08;129831;1280;114721;-72
2023/01/29 00:59:43;;;;;;;25.00;11.90;;;;;;;-1.75;73.55;101397.98;129636;1280;114742;-71
2023/01/29 01:03:04;;;;;;;22.20;12.30;;;;;;;-1.78;73.72;101386.90;129631;1263;115193;-70
2023/01/29 01:06:10;;;;;;;24.00;11.40;;;;;;;-1.79;74.07;101385.82;129530;1280;114916;-71
2023/01/29 01:12:33;;;;;;;21.50;11.60;;;;;;;-1.81;74.00;101391.05;129730;1258;127233;-64
2023/01/29 01:15:37;;;;;;;20.20;12.50;;;;;;;-1.80;73.99;101384.77;129544;1263;114705;-67
2023/01/29 01:18:40;;;;;;;22.00;12.40;;;;;;;-1.79;74.10;101376.19;129625;1280;114737;-67
2023/01/29 01:21:45;;;;;;;20.30;11.60;;;;;;;-1.78;74.06;101372.02;129736;1261;114648;-69
2023/01/29 01:24:48;;;;;;;;;;;;;;;-1.77;74.30;101377.64;129512;1274;114993;-66
2023/01/29 01:27:54;;;;;;;21.50;11.10;;;;;;;-1.76;74.09;101383.96;129673;1279;115324;-65
2023/01/29 01:30:56;;;;;;;17.10;11.00;;;;;;;-1.74;74.34;101383.13;129924;1258;114817;-66
2023/01/29 01:33:59;;;;;;;22.60;11.70;;;;;;;-1.72;74.14;101382.45;130071;1256;114711;-69
2023/01/29 01:37:01;;;;;;;24.50;12.20;;;;;;;-1.70;74.32;101382.33;130064;1267;114731;-70
2023/01/29 01:40:11;;;;;;;21.30;11.80;;;;;;;-1.66;74.38;101385.70;130151;1275;115357;-67
2023/01/29 01:43:13;;;;;;;22.00;12.20;;;;;;;-1.63;74.59;101378.95;129819;1261;114939;-64
2023/01/29 01:46:16;;;;;;;22.70;12.90;;;;;;;-1.59;74.16;101371.31;130041;1275;114815;-66
2023/01/29 01:49:20;;;;;;;25.20;13.80;;;;;;;-1.56;74.05;101370.66;130144;1275;114722;-70
2023/01/29 01:52:23;;;;;;;23.80;12.30;;;;;;;-1.53;74.79;101365.98;130039;1275;114770;-66
2023/01/29 01:55:27;;;;;;;30.00;14.20;;;;;;;-1.50;74.28;101361.66;130331;1257;115154;-67
2023/01/29 01:58:50;;;;;;;26.70;13.50;;;;;;;-1.47;74.44;101358.19;130101;1275;115227;-63
2023/01/29 02:01:53;;;;;;;18.70;12.10;;;;;;;-1.45;74.88;101349.46;129866;1267;129667;-64
2023/01/29 02:11:45;;;;;;;16.60;10.70;;;;;;;-1.37;74.70;101364.66;130167;1266;114772;-70
2023/01/29 02:14:48;;;;;;;19.20;10.60;;;;;;;-1.34;74.93;101364.20;130204;1275;115095;-66
2023/01/29 02:17:50;;;;;;;22.00;10.80;;;;;;;-1.31;74.48;101370.73;130292;1273;115086;-67
2023/01/29 02:21:05;;;;;;;20.10;10.80;;;;;;;-1.27;74.81;101372.02;130286;1275;114771;-65
2023/01/29 02:24:28;;;;;;;17.90;10.80;;;;;;;-1.25;74.91;101373.45;130244;1264;114749;-70
2023/01/29 02:27:55;;;;;;;16.90;10.10;;;;;;;-1.23;74.13;101370.16;130256;1264;115424;-60
2023/01/29 02:31:28;;;;;;;17.40;10.00;;;;;;;-1.20;74.65;101366.52;129897;1270;114916;-70
2023/01/29 02:38:17;;;;;;;17.70;10.30;;;;;;;-1.13;74.43;101368.91;130290;1275;128972;-64
2023/01/29 02:41:22;;;;;;;13.20;10.10;;;;;;;-1.11;74.67;101374.20;130341;1256;114718;-65
2023/01/29 02:44:37;;;;;;;20.10;9.90;;;;;;;-1.09;74.39;101369.17;130078;1257;115071;-61
2023/01/29 02:47:47;;;;;;;16.10;9.80;;;;;;;-1.06;74.58;101370.93;130124;1274;114821;-63
2023/01/29 02:50:57;;;;;;;15.50;9.10;;;;;;;-1.03;74.10;101373.45;130139;1260;114795;-63
2023/01/29 02:54:13;;;;;;;19.90;9.40;;;;;;;-1.02;74.39;101366.80;130463;1257;128770;-63
2023/01/29 02:57:27;;;;;;;15.90;9.60;;;;;;;-1.01;74.29;101366.83;130037;1275;115228;-64
2023/01/29 03:00:35;;;;;;;18.90;10.00;;;;;;;-0.99;73.94;101364.76;130048;1263;114932;-69
2023/01/29 03:03:41;;;;;;;15.60;10.00;;;;;;;-0.99;73.89;101364.21;130187;1264;114780;-63
2023/01/29 03:07:01;;;;;;;16.40;10.30;;;;;;;-0.98;74.25;101366.16;129747;1257;115381;-59
2023/01/29 03:10:34;;;;;;;17.10;10.30;;;;;;;-0.98;73.90;101365.48;130109;1274;127950;-64
2023/01/29 03:13:51;;;;;;;14.40;9.50;;;;;;;-0.96;74.05;101363.74;129852;1275;114765;-62
2023/01/29 03:16:54;;;;;;;18.50;11.50;;;;;;;-0.93;74.08;101360.27;130206;1275;114721;-62
2023/01/29 03:19:57;;;;;;;16.20;10.70;;;;;;;-0.92;73.81;101356.44;129847;1275;116420;-61
2023/01/29 03:23:04;;;;;;;20.80;11.40;;;;;;;-0.90;73.36;101350.66;130166;1275;115043;-69
2023/01/29 03:32:55;;;;;;;21.50;10.80;;;;;;;-0.86;73.39;101356.85;130096;1256;114703;-63
2023/01/29 03:36:03;;;;;;;18.30;10.70;;;;;;;-0.87;73.42;101361.59;130068;1275;115295;-72
2023/01/29 03:39:07;;;;;;;17.20;10.70;;;;;;;-0.86;73.45;101359.14;129757;1275;114771;-67
2023/01/29 03:42:33;;;;;;;15.10;9.80;;;;;;;-0.86;73.18;101359.86;130059;1257;128962;-69
2023/01/29 03:45:51;;;;;;;15.50;10.30;;;;;;;-0.84;72.95;101353.75;129788;1275;115272;-65
2023/01/29 03:49:26;;;;;;;19.60;10.70;;;;;;;-0.84;73.20;101344.63;130071;1257;115160;-72
2023/01/29 03:52:48;;;;;;;17.30;8.70;;;;;;;-0.81;73.29;101347.27;129376;1281;114705;-66
2023/01/29 03:56:28;;;;;;;13.20;9.80;;;;;;;-0.80;72.98;101340.11;129423;1273;114808;-68
2023/01/29 03:59:34;;;;;;;16.60;8.90;;;;;;;-0.79;73.12;101331.89;129277;1274;127950;-68
2023/01/29 04:02:42;;;;;;;16.40;9.50;;;;;;;-0.78;73.07;101333.31;129483;1281;116587;-67
2023/01/29 04:05:50;;;;;;;12.30;8.40;;;;;;;-0.76;72.99;101332.11;129473;1282;114946;-71
2023/01/29 04:09:03;;;;;;;11.40;8.30;;;;;;;-0.73;73.00;101326.70;129415;1264;114950;-70
2023/01/29 04:12:09;;;;;;;12.90;7.90;;;;;;;-0.72;73.00;101330.05;129300;1270;114892;-68
2023/01/29 04:15:14;;;;;;;10.60;7.40;;;;;;;-0.71;72.58;101331.29;129314;1273;127887;-73
2023/01/29 04:18:17;;;;;;;13.60;6.80;;;;;;;-0.71;72.67;101329.71;129546;1282;115917;-67
2023/01/29 04:21:19;;;;;;;13.70;7.20;;;;;;;-0.69;72.65;101327.46;129552;1282;114929;-67
2023/01/29 04:24:22;;;;;;;15.10;8.10;;;;;;;-0.69;72.59;101325.71;129587;1266;114958;-71
2023/01/29 04:27:54;;;;;;;11.40;7.20;;;;;;;-0.67;72.71;101322.58;129525;1282;114799;-71
2023/01/29 04:31:05;;;;;;;9.60;6.90;;;;;;;-0.68;72.39;101318.02;129145;1284;128127;-64
2023/01/29 04:34:50;;;;;;;10.70;7.00;;;;;;;-0.68;72.67;101315.21;129299;1266;115176;-67
2023/01/29 04:38:15;;;;;;;10.40;7.20;;;;;;;-0.68;72.48;101303.27;128878;1270;116462;-67
2023/01/29 04:41:49;;;;;;;10.50;7.40;;;;;;;-0.67;72.20;101297.33;129051;1270;114819;-70
2023/01/29 04:45:05;;;;;;;12.20;7.70;;;;;;;-0.68;72.16;101290.81;128863;1289;114831;-69
2023/01/29 04:48:11;;;;;;;15.10;8.40;;;;;;;-0.69;72.27;101283.97;129034;1270;129277;-70
2023/01/29 04:51:24;;;;;;;11.10;7.80;;;;;;;-0.70;72.15;101277.12;128736;1266;115277;-70
2023/01/29 04:54:43;;;;;;;12.60;8.30;;;;;;;-0.69;72.38;101280.98;128876;1270;114876;-70
2023/01/29 04:58:24;;;;;;;12.50;8.70;;;;;;;-0.68;72.24;101280.98;129052;1276;114878;-70
2023/01/29 05:01:29;;;;;;;10.80;8.30;;;;;;;-0.70;72.37;101278.86;128639;1292;114899;-69
2023/01/29 05:04:32;;;;;;;12.20;7.90;;;;;;;-0.69;72.47;101280.98;128597;1272;128547;-66
2023/01/29 05:07:37;;;;;;;14.40;8.20;;;;;;;-0.71;72.39;101276.74;128567;1288;115274;-68
2023/01/29 05:10:39;;;;;;;7.80;6.10;;;;;;;-0.71;72.34;101276.38;128793;1286;114899;-68
2023/01/29 05:13:42;;;;;;;10.50;7.90;;;;;;;-0.72;72.31;101274.79;129140;1269;114867;-69
2023/01/29 05:16:47;;;;;;;11.30;7.60;;;;;;;-0.73;72.49;101272.16;129513;1283;114901;-67
2023/01/29 05:19:49;;;;;;;15.60;8.40;;;;;;;-0.71;72.15;101267.80;129246;1267;127972;-68
2023/01/29 05:22:52;;;;;;;11.90;8.50;;;;;;;-0.70;72.29;101264.64;129430;1282;114847;-67
2023/01/29 05:25:55;;;;;;;10.70;8.10;;;;;;;-0.69;72.38;101263.80;129443;1282;114825;-68
2023/01/29 05:28:58;;;;;;;16.70;9.70;;;;;;;-0.69;72.47;101264.32;129584;1262;114894;-66
2023/01/29 05:32:00;;;;;;;13.70;8.50;;;;;;;-0.70;72.26;101258.17;129408;1281;114789;-68
2023/01/29 05:35:03;;;;;;;13.70;8.50;;;;;;;-0.70;72.27;101253.77;129431;1281;114804;-65
2023/01/29 05:38:05;;;;;;;15.60;9.50;;;;;;;-0.70;72.26;101253.77;129686;1275;127360;-67
2023/01/29 05:41:07;;;;;;;12.40;8.80;;;;;;;-0.70;72.15;101254.13;130095;1275;115135;-70
2023/01/29 05:44:10;;;;;;;13.40;8.70;;;;;;;-0.70;72.41;101258.86;130180;1275;114698;-64
2023/01/29 05:47:12;;;;;;;13.30;10.10;;;;;;;-0.70;71.98;101260.79;130204;1271;114718;-66
2023/01/29 05:50:17;;;;;;;12.50;9.20;;;;;;;-0.72;72.13;101259.54;130161;1275;114645;-66
2023/01/29 05:53:19;;;;;;;13.70;10.10;;;;;;;-0.73;71.89;101254.27;130257;1275;114765;-65
2023/01/29 05:56:22;;;;;;;14.80;9.60;;;;;;;-0.75;72.23;101251.63;130156;1275;114724;-66
2023/01/29 05:59:24;;;;;;;16.10;9.10;;;;;;;-0.77;71.70;101250.54;130116;1256;114730;-66
2023/01/29 06:02:30;;;;;;;14.80;9.50;;;;;;;-0.80;71.80;101250.48;130184;1275;115305;-65
2023/01/29 06:05:32;;;;;;;12.60;8.50;;;;;;;-0.79;72.03;101256.12;130149;1257;114705;-67
2023/01/29 06:08:35;;;;;;;14.40;9.00;;;;;;;-0.79;71.97;101261.03;130226;1264;115401;-69
2023/01/29 06:11:38;;;;;;;14.40;10.20;;;;;;;-0.80;71.56;101258.55;130193;1271;114816;-66
2023/01/29 06:14:40;;;;;;;17.80;11.10;;;;;;;-0.81;71.80;101258.55;130301;1267;114759;-63
2023/01/29 06:17:43;;;;;;;18.40;11.80;;;;;;;-0.83;71.87;101260.64;130277;1274;116451;-66
2023/01/29 06:20:45;;;;;;;23.10;12.70;;;;;;;-0.86;71.69;101257.96;129960;1272;115153;-66
2023/01/29 06:23:47;;;;;;;24.50;13.90;;;;;;;-0.86;71.57;101255.15;130332;1254;114837;-64
2023/01/29 06:26:49;;;;;;;16.80;11.00;;;;;;;-0.88;71.90;101252.14;130373;1270;114708;-66
2023/01/29 06:29:52;;;;;;;41.10;22.80;;;;;;;-0.90;71.61;101254.94;129953;1273;115566;-69
2023/01/29 06:32:57;;;;;;;42.60;24.00;;;;;;;-0.94;71.77;101261.55;130232;1274;114727;-66
2023/01/29 06:36:02;;;;;;;22.30;13.10;;;;;;;-0.96;71.92;101268.89;130317;1274;127843;-67
2023/01/29 06:39:04;;;;;;;15.20;11.20;;;;;;;-0.99;71.70;101271.47;130330;1270;114807;-67
2023/01/29 06:42:07;;;;;;;15.20;10.90;;;;;;;-1.01;71.94;101274.95;130338;1274;114663;-64
2023/01/29 06:45:10;;;;;;;16.60;9.90;;;;;;;-1.03;71.71;101278.77;130435;1251;114689;-71
2023/01/29 06:48:12;;;;;;;13.70;9.40;;;;;;;-1.07;71.80;101280.30;130324;1274;114688;-63
2023/01/29 06:51:15;;;;;;;15.00;9.40;;;;;;;-1.10;71.60;101292.18;130387;1274;115154;-67
2023/01/29 06:54:17;;;;;;;12.80;9.00;;;;;;;-1.13;72.00;101293.89;130152;1257;127794;-66
2023/01/29 06:57:20;;;;;;;14.70;10.50;;;;;;;-1.14;71.72;101302.45;130273;1257;114747;-71
2023/01/29 07:00:22;;;;;;;14.70;10.20;;;;;;;-1.17;71.56;101308.39;130552;1274;114683;-67
2023/01/29 07:03:25;;;;;;;16.10;9.80;;;;;;;-1.19;71.90;101307.65;130266;1253;114740;-69
2023/01/29 07:06:28;;;;;;;12.90;9.10;;;;;;;-1.19;71.72;101310.61;130142;1254;115089;-67
2023/01/29 07:09:30;;;;;;;24.60;14.20;;;;;;;-1.19;71.54;101315.35;130048;1257;114689;-66
2023/01/29 07:12:33;;;;;;;24.50;13.50;;;;;;;-1.17;71.84;101315.05;130320;1274;114733;-66
2023/01/29 07:15:35;;;;;;;19.90;11.60;;;;;;;-1.13;72.05;101319.30;130279;1274;114701;-63
2023/01/29 07:18:37;;;;;;;21.00;12.80;;;;;;;-1.09;71.93;101321.64;130468;1273;114785;-68
2023/01/29 07:21:40;;;;;;;17.20;11.30;;;;;;;-1.06;71.84;101327.64;129950;1270;114837;-62
2023/01/29 07:24:42;;;;;;;15.80;10.40;;;;;;;-1.03;71.96;101324.35;130377;1254;114621;-70
2023/01/29 07:27:44;;;;;;;17.50;12.00;;;;;;;-1.00;71.79;101329.66;130249;1273;114692;-63
2023/01/29 07:30:47;;;;;;;17.10;10.30;;;;;;;-0.97;71.79;101328.31;130259;1274;114712;-68
2023/01/29 07:33:49;;;;;;;16.00;10.50;;;;;;;-0.91;71.55;101322.60;130015;1257;127668;-65
2023/01/29 07:36:54;;;;;;;18.70;11.10;;;;;;;-0.87;71.98;101314.77;130226;1254;114724;-66
2023/01/29 07:39:57;;;;;;;17.70;10.30;;;;;;;-0.82;71.78;101323.09;130238;1254;114730;-61
2023/01/29 07:43:01;;;;;;;15.70;10.40;;;;;;;-0.75;71.92;101319.48;130342;1250;115135;-66
2023/01/29 07:46:04;;;;;;;17.80;10.60;;;;;;;-0.66;71.45;101317.16;130409;1254;114670;-69
2023/01/29 07:49:06;;;;;;;15.00;10.30;;;;;;;-0.60;71.60;101308.30;130196;1273;128000;-68
2023/01/29 07:52:09;;;;;;;15.00;9.70;;;;;;;-0.54;71.52;101318.54;130275;1274;115202;-68
2023/01/29 07:55:12;;;;;;;17.70;10.80;;;;;;;-0.51;71.48;101327.52;130263;1257;114734;-70
2023/01/29 07:58:14;;;;;;;17.50;10.20;;;;;;;-0.51;71.18;101321.73;130421;1251;114778;-62
2023/01/29 08:01:17;;;;;;;13.70;10.00;;;;;;;-0.50;71.36;101306.66;130417;1275;114769;-64
2023/01/29 08:04:19;;;;;;;19.80;10.70;;;;;;;-0.47;71.00;101293.89;130491;1275;114801;-63
2023/01/29 08:07:22;;;;;;;15.60;9.60;;;;;;;-0.42;71.29;101289.20;130218;1256;114794;-66
2023/01/29 08:10:24;;;;;;;13.80;8.70;;;;;;;-0.36;71.21;101289.79;130139;1257;114759;-60
2023/01/29 08:13:27;;;;;;;14.30;10.30;;;;;;;-0.28;70.98;101290.94;129829;1275;115191;-60
2023/01/29 08:16:29;;;;;;;14.40;9.50;;;;;;;-0.21;70.95;101295.57;130265;1253;114804;-66
2023/01/29 08:19:32;;;;;;;15.60;10.70;;;;;;;-0.13;71.32;101291.27;130195;1275;114801;-67
2023/01/29 08:22:35;;;;;;;17.50;10.80;;;;;;;-0.03;71.03;101287.15;130224;1274;114723;-64
2023/01/29 08:25:37;;;;;;;16.50;11.30;;;;;;;0.06;70.85;101284.42;130240;1267;114784;-62
2023/01/29 08:28:41;;;;;;;17.20;10.90;;;;;;;0.15;70.66;101281.70;130385;1275;128504;-63
2023/01/29 08:31:43;;;;;;;13.40;9.70;;;;;;;0.21;70.58;101275.08;130339;1275;114750;-69
2023/01/29 08:34:49;;;;;;;15.70;10.20;;;;;;;0.27;70.56;101269.33;130310;1254;114811;-63
2023/01/29 08:37:54;;;;;;;16.70;10.80;;;;;;;0.33;70.46;101257.45;129790;1256;114874;-70
2023/01/29 08:40:56;;;;;;;16.20;10.80;;;;;;;0.49;70.97;101254.40;129948;1256;114823;-66
2023/01/29 08:44:00;;;;;;;15.80;10.70;;;;;;;0.61;70.52;101245.00;130354;1256;115097;-61
2023/01/29 08:47:03;;;;;;;20.40;10.80;;;;;;;0.72;70.22;101238.38;130292;1267;115087;-69
2023/01/29 08:50:05;;;;;;;28.70;16.50;;;;;;;0.81;70.08;101237.91;130266;1255;114655;-64
2023/01/29 08:53:08;;;;;;;15.60;11.30;;;;;;;0.93;70.37;101239.03;130277;1250;115378;-65
2023/01/29 08:56:11;;;;;;;20.30;12.10;;;;;;;1.03;70.13;101232.58;130275;1257;114722;-64
2023/01/29 08:59:13;;;;;;;20.80;12.60;;;;;;;1.13;70.20;101237.02;130369;1273;114784;-64
2023/01/29 09:02:15;;;;;;;18.70;11.40;;;;;;;1.21;70.05;101240.75;129798;1273;128409;-62
2023/01/29 09:05:18;;;;;;;17.80;11.30;;;;;;;1.28;69.78;101240.60;130151;1274;114692;-69
2023/01/29 09:08:20;;;;;;;19.10;11.70;;;;;;;1.34;69.60;101240.80;130218;1275;114724;-68
2023/01/29 09:11:23;;;;;;;18.10;10.80;;;;;;;1.40;69.71;101242.58;130156;1275;114956;-66
2023/01/29 09:14:26;;;;;;;19.10;11.50;;;;;;;1.44;69.25;101248.05;130267;1257;114706;-67
2023/01/29 09:17:28;;;;;;;18.50;11.90;;;;;;;1.49;69.50;101253.70;130140;1275;114792;-64
2023/01/29 09:20:31;;;;;;;16.60;11.60;;;;;;;1.58;69.38;101257.42;130197;1258;114696;-67
2023/01/29 09:23:33;;;;;;;21.80;15.90;;;;;;;1.63;69.28;101245.10;130217;1258;114730;-68
2023/01/29 09:26:38;;;;;;;19.70;11.20;;;;;;;1.70;69.20;101246.54;130259;1251;114666;-62
2023/01/29 09:29:40;;;;;;;13.70;10.00;;;;;;;1.73;69.03;101243.72;130020;1259;114766;-64
2023/01/29 09:32:43;;;;;;;15.20;10.30;;;;;;;1.79;69.23;101243.91;130008;1275;239172;-64
2023/01/29 09:35:46;;;;;;;16.80;11.40;;;;;;;1.89;68.97;101240.93;130155;1255;114776;-65
2023/01/29 09:38:48;;;;;;;17.20;11.00;;;;;;;1.96;69.13;101239.36;130218;1275;114692;-65
2023/01/29 09:42:07;;;;;;;18.50;11.00;;;;;;;2.02;68.76;101236.55;130073;1254;128865;-64
2023/01/29 09:45:25;;;;;;;18.30;11.00;;;;;;;2.10;68.58;101229.86;130125;1275;115209;-65
2023/01/29 09:48:31;;;;;;;15.40;9.50;;;;;;;2.22;68.93;101224.39;129875;1259;114831;-63
2023/01/29 09:51:38;;;;;;;53.70;30.40;;;;;;;2.35;68.98;101210.98;130120;1259;114830;-67
2023/01/29 09:55:07;;;;;;;93.50;44.00;;;;;;;2.49;68.75;101204.45;130270;1273;114692;-65
2023/01/29 09:58:40;;;;;;;54.70;29.20;;;;;;;2.63;68.60;101196.84;130435;1254;128314;-64
2023/01/29 10:02:05;;;;;;;24.40;16.60;;;;;;;2.77;68.39;101192.41;130426;1273;115132;-66
2023/01/29 10:05:33;;;;;;;22.10;14.90;;;;;;;2.88;67.75;101184.08;130445;1273;114833;-65
2023/01/29 10:09:04;;;;;;;17.30;12.10;;;;;;;2.97;67.96;101181.56;130381;1257;114947;-68
2023/01/29 10:12:35;;;;;;;17.20;10.80;;;;;;;3.09;67.81;101174.45;130414;1251;114778;-65
2023/01/29 10:15:58;;;;;;;17.90;11.60;;;;;;;3.16;67.53;101163.30;130010;1275;128548;-64
2023/01/29 10:19:25;;;;;;;17.70;12.50;;;;;;;3.20;67.37;101157.45;130446;1275;114680;-68
2023/01/29 10:23:09;;;;;;;19.00;13.10;;;;;;;3.30;67.57;101154.94;130423;1259;115073;-62
2023/01/29 10:26:17;;;;;;;19.70;13.10;;;;;;;3.41;67.32;101146.75;130523;1256;114697;-68
2023/01/29 10:29:26;;;;;;;17.10;12.40;;;;;;;3.46;67.14;101142.31;130416;1257;115236;-62
2023/01/29 10:32:49;;;;;;;20.10;12.30;;;;;;;3.54;67.21;101136.25;130257;1251;127393;-60
2023/01/29 10:36:01;;;;;;;18.60;11.90;;;;;;;3.58;67.02;101135.16;130205;1273;115240;-67
2023/01/29 10:39:40;;;;;;;23.50;14.20;;;;;;;3.62;66.88;101139.55;130454;1263;114695;-66
2023/01/29 10:43:11;;;;;;;22.00;13.90;;;;;;;3.70;67.10;101137.71;130059;1260;114849;-66
2023/01/29 10:46:33;;;;;;;32.90;18.50;;;;;;;3.76;66.73;101137.14;129583;1264;114818;-66
2023/01/29 10:50:06;;;;;;;28.70;18.60;;;;;;;3.78;66.70;101136.95;129369;1260;128835;-67
2023/01/29 10:53:35;;;;;;;20.40;13.70;;;;;;;3.86;66.97;101135.30;129134;1269;115415;-62
2023/01/29 10:57:12;;;;;;;16.90;11.10;;;;;;;3.92;66.84;101128.88;129198;1268;114898;-67
2023/01/29 11:00:24;;;;;;;20.00;13.70;;;;;;;3.88;66.46;101122.36;129187;1284;114845;-68
2023/01/29 11:03:49;;;;;;;23.80;14.40;;;;;;;3.86;66.42;101116.39;129346;1265;114822;-64
2023/01/29 11:06:59;;;;;;;20.40;12.90;;;;;;;3.87;66.46;101112.50;129459;1284;128679;-67
2023/01/29 11:10:29;;;;;;;17.30;11.90;;;;;;;3.84;66.09;101111.63;129423;1265;116587;-66
2023/01/29 11:14:34;;;;;;;22.50;14.50;;;;;;;3.82;66.20;101103.52;129445;1265;114871;-67
2023/01/29 11:18:12;;;;;;;22.80;13.10;;;;;;;3.82;66.28;101098.04;128989;1269;114830;-66
2023/01/29 11:21:28;;;;;;;18.60;12.30;;;;;;;3.78;66.05;101097.55;128889;1290;114848;-71
2023/01/29 11:24:30;;;;;;;19.90;12.80;;;;;;;3.82;66.27;101093.10;129256;1282;129175;-60
2023/01/29 11:27:42;;;;;;;22.30;14.30;;;;;;;3.89;66.45;101092.67;129711;1276;114822;-69
2023/01/29 11:30:44;;;;;;;17.70;11.90;;;;;;;3.93;66.39;101093.17;129670;1262;114788;-68
2023/01/29 11:33:46;;;;;;;22.10;13.80;;;;;;;3.91;66.01;101088.59;129533;1281;114888;-70
2023/01/29 11:36:56;;;;;;;17.00;11.00;;;;;;;3.93;66.16;101084.69;129577;1275;115164;-66
2023/01/29 11:39:59;;;;;;;25.10;15.70;;;;;;;3.90;65.98;101080.30;129544;1264;128738;-63
2023/01/29 11:43:21;;;;;;;24.10;15.40;;;;;;;3.93;66.35;101067.19;129768;1257;114866;-66
2023/01/29 11:46:23;;;;;;;17.80;11.20;;;;;;;3.95;66.32;101059.04;129494;1261;114999;-64
2023/01/29 11:49:33;;;;;;;18.90;11.20;;;;;;;3.95;66.35;101050.21;129707;1262;114867;-65
2023/01/29 11:52:39;;;;;;;21.50;11.90;;;;;;;3.95;66.31;101044.55;129661;1275;114805;-65
2023/01/29 11:55:45;;;;;;;20.60;11.80;;;;;;;3.92;66.28;101036.46;129701;1263;127746;-65
2023/01/29 11:58:49;;;;;;;29.90;18.50;;;;;;;3.93;66.51;101032.21;129800;1263;115256;-66
2023/01/29 12:01:51;;;;;;;19.80;12.80;;;;;;;3.93;66.50;101023.90;130290;1255;114673;-64
2023/01/29 12:04:57;;;;;;;19.80;13.50;;;;;;;3.93;66.38;101022.13;130304;1251;114699;-61
2023/01/29 12:08:00;;;;;;;22.20;14.40;;;;;;;3.89;66.31;101020.57;130007;1260;115325;-66
2023/01/29 12:11:08;;;;;;;19.10;12.70;;;;;;;3.86;66.04;101019.55;130104;1273;115032;-61
2023/01/29 12:14:34;;;;;;;19.90;11.30;;;;;;;3.84;66.54;101014.45;130253;1256;115210;-62
2023/01/29 12:17:37;;;;;;;16.90;10.90;;;;;;;3.80;66.32;101002.65;130303;1266;114814;-63
2023/01/29 12:20:51;;;;;;;17.40;10.70;;;;;;;3.76;66.37;100990.15;130153;1252;114788;-64
2023/01/29 12:24:01;;;;;;;19.40;11.90;;;;;;;3.75;66.53;100980.96;129947;1273;115080;-69
2023/01/29 12:27:25;;;;;;;19.70;12.10;;;;;;;3.74;66.65;100977.27;129981;1275;128332;-68
2023/01/29 12:31:00;;;;;;;16.80;11.80;;;;;;;3.72;67.00;100978.17;130373;1256;115127;-66
2023/01/29 12:34:40;;;;;;;20.40;12.10;;;;;;;3.73;67.02;100974.80;130391;1256;114722;-67
2023/01/29 12:37:57;;;;;;;18.10;11.30;;;;;;;3.72;67.01;100968.81;130550;1259;115286;-66
2023/01/29 12:41:21;;;;;;;18.70;9.90;;;;;;;3.71;67.06;100967.05;130353;1251;114682;-66
2023/01/29 12:45:00;;;;;;;15.80;9.40;;;;;;;3.65;67.05;100967.46;130322;1255;128920;-69
2023/01/29 12:48:13;;;;;;;14.80;8.80;;;;;;;3.59;67.08;100966.30;130292;1270;115119;-65
2023/01/29 12:51:19;;;;;;;13.90;9.40;;;;;;;3.54;67.02;100961.04;130353;1251;114724;-68
2023/01/29 12:54:48;;;;;;;18.60;11.90;;;;;;;3.51;67.30;100956.30;130292;1251;114768;-67
2023/01/29 12:58:16;;;;;;;15.30;9.30;;;;;;;3.50;67.24;100949.60;130301;1273;114706;-67
2023/01/29 13:01:56;;;;;;;12.20;7.90;;;;;;;3.47;67.31;100938.69;130400;1266;128608;-69
2023/01/29 13:05:34;;;;;;;12.00;6.90;;;;;;;3.48;67.28;100931.45;130435;1256;115224;-68
2023/01/29 13:08:52;;;;;;;11.90;6.90;;;;;;;3.47;67.19;100923.15;130308;1253;114781;-68
2023/01/29 13:12:05;;;;;;;15.50;9.00;;;;;;;3.46;67.15;100919.63;130338;1254;114712;-66
2023/01/29 13:15:27;;;;;;;15.60;7.90;;;;;;;3.49;67.49;100924.88;130151;1254;115147;-65
2023/01/29 13:19:28;;;;;;;10.80;7.40;;;;;;;3.55;67.46;100934.55;130283;1257;128424;-68
2023/01/29 13:22:37;;;;;;;10.00;6.50;;;;;;;3.57;67.13;100935.05;129970;1278;115362;-65
2023/01/29 13:25:50;;;;;;;12.30;7.20;;;;;;;3.55;67.15;100928.90;130127;1255;114805;-67
2023/01/29 13:28:56;;;;;;;16.70;9.70;;;;;;;3.57;67.03;100923.55;130109;1254;114862;-67
2023/01/29 13:32:08;;;;;;;12.70;7.30;;;;;;;3.56;67.06;100922.52;129631;1262;114914;-66
2023/01/29 13:35:23;;;;;;;11.40;6.30;;;;;;;3.51;66.82;100918.34;129815;1277;129499;-63
2023/01/29 13:38:35;;;;;;;10.00;6.90;;;;;;;3.51;66.99;100919.40;129644;1276;114864;-63
2023/01/29 13:41:44;;;;;;;14.00;7.30;;;;;;;3.49;67.16;100919.77;130219;1278;115298;-67
2023/01/29 13:45:42;;;;;;;14.50;9.10;;;;;;;3.49;67.20;100919.59;130267;1264;114799;-69
2023/01/29 13:49:05;;;;;;;20.90;12.90;;;;;;;3.46;67.33;100915.02;130277;1262;114875;-62
2023/01/29 13:52:41;;;;;;;41.90;17.60;;;;;;;3.51;67.31;100910.91;130433;1275;114754;-60
2023/01/29 13:55:47;;;;;;;20.50;10.10;;;;;;;3.51;67.33;100899.97;130663;1257;115147;-66
2023/01/29 13:59:00;;;;;;;20.30;9.60;;;;;;;3.53;67.26;100903.14;130572;1256;114808;-60
2023/01/29 14:02:30;;;;;;;18.20;9.10;;;;;;;3.54;67.36;100902.77;130748;1274;114729;-69
2023/01/29 14:05:50;;;;;;;19.90;9.20;;;;;;;3.52;67.22;100903.32;130572;1255;114772;-64
2023/01/29 14:08:59;;;;;;;27.50;15.00;;;;;;;3.47;67.31;100900.54;130101;1262;128362;-59
2023/01/29 14:12:35;;;;;;;29.00;15.90;;;;;;;3.47;67.36;100895.43;130539;1259;115233;-61
2023/01/29 14:16:00;;;;;;;17.50;10.10;;;;;;;3.48;67.49;100893.45;130575;1259;114685;-61
2023/01/29 14:19:20;;;;;;;20.40;10.20;;;;;;;3.48;67.67;100890.64;130562;1257;114701;-61
2023/01/29 14:22:35;;;;;;;26.60;13.90;;;;;;;3.46;67.71;100888.72;130369;1258;114840;-62
2023/01/29 14:25:40;;;;;;;36.90;17.80;;;;;;;3.46;67.77;100889.77;129893;1275;127202;-60
2023/01/29 14:28:42;;;;;;;23.30;12.90;;;;;;;3.46;67.47;100890.48;130275;1275;114801;-63
2023/01/29 14:31:58;;;;;;;23.30;12.70;;;;;;;3.45;67.68;100895.27;130161;1259;115395;-68
2023/01/29 14:35:22;;;;;;;19.90;11.60;;;;;;;3.43;67.63;100893.88;129900;1257;114899;-66
2023/01/29 14:38:27;;;;;;;23.80;12.20;;;;;;;3.42;67.88;100897.23;130173;1257;114930;-69